createdAt,value
2022-12-12T00:00:55.217Z,259.90
2022-12-12T00:02:01.318Z,226.97
2022-12-12T00:03:08.306Z,231.35
2022-12-12T00:04:15.944Z,240.12
2022-12-12T00:05:21.294Z,237.49
2022-12-12T00:06:28.730Z,241.53
2022-12-12T00:07:32.038Z,237.69
2022-12-12T00:08:38.128Z,230.94
2022-12-12T00:09:44.895Z,237.21
2022-12-12T00:10:48.366Z,236.02
2022-12-12T00:11:54.323Z,233.31
2022-12-12T00:12:57.703Z,239.60
2022-12-12T00:14:06.938Z,229.55
2022-12-12T00:15:11.961Z,240.15
2022-12-12T00:16:18.822Z,239.67
2022-12-12T00:17:22.225Z,246.52
2022-12-12T00:18:28.337Z,252.84
2022-12-12T00:19:31.844Z,241.27
2022-12-12T00:20:38.553Z,233.77
2022-12-12T00:21:41.974Z,234.20
2022-12-12T00:22:47.892Z,238.00
2022-12-12T00:23:52.723Z,239.49
2022-12-12T00:24:58.704Z,236.45
2022-12-12T00:26:08.828Z,247.75
2022-12-12T00:27:14.772Z,242.30
2022-12-12T00:28:18.277Z,235.55
2022-12-12T00:29:26.783Z,229.06
2022-12-12T00:30:30.104Z,233.68
2022-12-12T00:31:37.170Z,238.16
2022-12-12T00:32:40.622Z,253.56
2022-12-12T00:33:50.359Z,246.82
2022-12-12T00:34:53.870Z,237.68
2022-12-12T00:35:59.801Z,225.74
2022-12-12T00:37:06.637Z,224.82
2022-12-12T00:38:10.250Z,213.08
2022-12-12T00:39:18.450Z,213.56
2022-12-12T00:40:22.680Z,208.68
2022-12-12T00:41:29.705Z,205.78
2022-12-12T00:42:36.613Z,197.97
2022-12-12T00:43:40.005Z,204.70
2022-12-12T00:44:48.572Z,200.37
2022-12-12T00:45:52.531Z,191.83
2022-12-12T00:46:58.479Z,193.06
2022-12-12T00:48:02.659Z,193.63
2022-12-12T00:49:09.430Z,203.58
2022-12-12T00:50:13.950Z,198.73
2022-12-12T00:51:23.373Z,196.16
2022-12-12T00:52:29.309Z,197.85
2022-12-12T00:53:33.417Z,190.16
2022-12-12T00:54:39.317Z,194.84
2022-12-12T00:55:42.955Z,188.22
2022-12-12T00:56:48.923Z,195.56
2022-12-12T00:57:52.743Z,195.26
2022-12-12T00:58:59.518Z,193.42
2022-12-12T01:00:09.271Z,191.10
2022-12-12T01:01:17.220Z,199.66
2022-12-12T01:02:28.144Z,204.46
2022-12-12T01:03:33.970Z,205.47
2022-12-12T01:04:40.756Z,196.06
2022-12-12T01:05:44.265Z,195.48
2022-12-12T01:06:50.371Z,193.31
2022-12-12T01:07:54.410Z,191.18
2022-12-12T01:09:00.626Z,190.17
2022-12-12T01:10:07.434Z,192.01
2022-12-12T01:11:16.944Z,182.18
2022-12-12T01:12:20.250Z,184.59
2022-12-12T01:13:27.220Z,180.68
2022-12-12T01:14:33.303Z,184.54
2022-12-12T01:15:40.058Z,175.90
2022-12-12T01:16:46.015Z,179.33
2022-12-12T01:17:49.440Z,173.22
2022-12-12T01:18:55.966Z,183.70
2022-12-12T01:19:59.260Z,176.68
2022-12-12T01:21:07.175Z,174.38
2022-12-12T01:22:10.659Z,169.68
2022-12-12T01:23:17.858Z,176.64
2022-12-12T01:24:21.302Z,172.14
2022-12-12T01:25:27.568Z,174.17
2022-12-12T01:26:31.747Z,167.79
2022-12-12T01:27:37.672Z,159.06
2022-12-12T01:28:42.809Z,164.33
2022-12-12T01:29:48.592Z,159.08
2022-12-12T01:30:54.607Z,155.44
2022-12-12T01:32:01.343Z,156.88
2022-12-12T01:33:04.851Z,163.41
2022-12-12T01:34:11.309Z,158.88
2022-12-12T01:35:15.262Z,154.98
2022-12-12T01:36:25.434Z,159.78
2022-12-12T01:37:29.611Z,153.89
2022-12-12T01:38:35.701Z,155.54
2022-12-12T01:39:38.948Z,156.83
2022-12-12T01:40:45.256Z,156.45
2022-12-12T01:41:48.615Z,160.04
2022-12-12T01:42:56.700Z,151.85
2022-12-12T01:44:06.828Z,150.35
2022-12-12T01:46:09.235Z,160.43
2022-12-12T01:47:21.862Z,177.71
2022-12-12T01:48:34.513Z,169.82
2022-12-12T01:49:40.720Z,167.10
2022-12-12T01:50:45.974Z,168.10
2022-12-12T01:51:58.708Z,163.43
2022-12-12T01:53:02.154Z,153.65
2022-12-12T01:54:19.003Z,149.69
2022-12-12T01:55:28.619Z,156.31
2022-12-12T01:56:35.066Z,157.75
2022-12-12T01:57:50.102Z,159.10
2022-12-12T01:58:56.894Z,156.74
2022-12-12T02:00:10.397Z,163.09
2022-12-12T02:01:17.008Z,163.14
2022-12-12T02:02:25.602Z,167.19
2022-12-12T02:03:29.448Z,164.19
2022-12-12T02:04:36.062Z,167.38
2022-12-12T02:05:48.381Z,166.16
2022-12-12T02:06:55.991Z,173.94
2022-12-12T02:08:03.868Z,172.48
2022-12-12T02:09:15.492Z,178.79
2022-12-12T02:10:19.022Z,171.59
2022-12-12T02:11:25.931Z,162.13
2022-12-12T02:12:29.372Z,171.56
2022-12-12T02:13:38.797Z,165.62
2022-12-12T02:14:51.331Z,161.64
2022-12-12T02:16:10.377Z,171.04
2022-12-12T02:18:12.397Z,166.15
2022-12-12T02:20:03.515Z,169.70
2022-12-12T02:21:24.552Z,163.95
2022-12-12T02:23:16.946Z,169.64
2022-12-12T02:25:12.630Z,168.64
2022-12-12T02:27:13.019Z,167.76
2022-12-12T02:29:10.943Z,173.37
2022-12-12T02:30:24.673Z,163.99
2022-12-12T02:31:41.078Z,167.22
2022-12-12T02:33:13.593Z,165.44
2022-12-12T02:34:40.116Z,168.38
2022-12-12T02:36:15.968Z,166.30
2022-12-12T02:37:33.326Z,163.75
2022-12-12T02:38:56.164Z,157.66
2022-12-12T02:40:21.242Z,161.28
2022-12-12T02:41:39.490Z,163.24
2022-12-12T02:42:53.299Z,154.54
2022-12-12T02:44:17.618Z,152.39
2022-12-12T02:45:36.579Z,158.97
2022-12-12T02:46:59.376Z,157.35
2022-12-12T02:48:17.259Z,153.52
2022-12-12T02:49:34.541Z,165.49
2022-12-12T02:50:44.007Z,155.45
2022-12-12T02:51:54.642Z,159.29
2022-12-12T02:53:00.529Z,163.84
2022-12-12T02:54:16.182Z,169.19
2022-12-12T02:55:21.568Z,167.25
2022-12-12T02:56:53.271Z,156.94
2022-12-12T02:57:56.865Z,166.46
2022-12-12T02:59:02.823Z,172.74
2022-12-12T03:00:13.755Z,163.74
2022-12-12T03:01:45.017Z,166.11
2022-12-12T03:03:43.859Z,175.64
2022-12-12T03:05:28.878Z,170.27
2022-12-12T03:07:13.383Z,169.25
2022-12-12T03:08:45.088Z,163.61
2022-12-12T03:10:06.060Z,162.42
2022-12-12T03:11:21.744Z,157.16
2022-12-12T03:12:43.207Z,168.71
2022-12-12T03:13:58.080Z,160.15
2022-12-12T03:15:17.152Z,159.20
2022-12-12T03:16:29.837Z,172.43
2022-12-12T03:17:49.269Z,174.02
2022-12-12T03:19:09.279Z,181.67
2022-12-12T03:20:25.606Z,175.70
2022-12-12T03:21:44.555Z,180.15
2022-12-12T03:23:00.201Z,173.95
2022-12-12T03:24:14.216Z,166.55
2022-12-12T03:25:29.908Z,170.62
2022-12-12T03:26:50.490Z,160.50
2022-12-12T03:28:06.636Z,164.45
2022-12-12T03:29:20.861Z,155.38
2022-12-12T03:30:25.142Z,162.86
2022-12-12T03:31:37.913Z,159.30
2022-12-12T03:32:56.095Z,166.23
2022-12-12T03:34:10.228Z,168.79
2022-12-12T03:35:28.579Z,168.72
2022-12-12T03:36:41.134Z,166.09
2022-12-12T03:37:54.788Z,165.15
2022-12-12T03:39:11.925Z,172.88
2022-12-12T03:40:25.533Z,163.25
2022-12-12T03:41:43.263Z,160.08
2022-12-12T03:42:58.012Z,174.61
2022-12-12T03:44:15.153Z,198.78
2022-12-12T03:45:30.749Z,166.48
2022-12-12T03:46:49.449Z,168.56
2022-12-12T03:48:04.585Z,161.93
2022-12-12T03:49:23.300Z,161.16
2022-12-12T03:50:37.261Z,168.25
2022-12-12T03:51:53.160Z,159.48
2022-12-12T03:53:07.442Z,171.42
2022-12-12T03:54:27.004Z,166.42
2022-12-12T03:55:44.276Z,163.65
2022-12-12T03:57:00.332Z,160.95
2022-12-12T03:58:14.164Z,164.38
2022-12-12T03:59:29.391Z,163.02
2022-12-12T04:00:40.189Z,158.86
2022-12-12T04:02:00.829Z,166.74
2022-12-12T04:03:19.020Z,160.75
2022-12-12T04:04:39.800Z,161.06
2022-12-12T04:06:14.138Z,166.18
2022-12-12T04:07:31.047Z,153.96
2022-12-12T04:08:36.057Z,159.83
2022-12-12T04:09:55.613Z,161.69
2022-12-12T04:11:26.344Z,171.77
2022-12-12T04:12:56.773Z,161.02
2022-12-12T04:14:24.256Z,166.99
2022-12-12T04:16:00.418Z,168.00
2022-12-12T04:17:09.287Z,173.33
2022-12-12T04:18:28.062Z,170.98
2022-12-12T04:19:58.061Z,170.51
2022-12-12T04:21:35.460Z,165.38
2022-12-12T04:23:13.273Z,163.31
2022-12-12T04:24:33.526Z,163.41
2022-12-12T04:26:09.807Z,166.89
2022-12-12T04:27:28.711Z,162.99
2022-12-12T04:28:36.919Z,163.90
2022-12-12T04:29:56.724Z,165.93
2022-12-12T04:31:06.859Z,164.63
2022-12-12T04:32:25.675Z,161.24
2022-12-12T04:33:42.375Z,172.26
2022-12-12T04:35:01.765Z,179.21
2022-12-12T04:36:10.561Z,173.25
2022-12-12T04:37:25.801Z,174.01
2022-12-12T04:38:31.142Z,176.14
2022-12-12T04:39:46.402Z,169.71
2022-12-12T04:40:59.459Z,168.63
2022-12-12T04:42:13.612Z,166.38
2022-12-12T04:43:23.016Z,174.62
2022-12-12T04:44:36.284Z,166.27
2022-12-12T04:45:45.518Z,160.69
2022-12-12T04:46:59.617Z,165.39
2022-12-12T04:48:09.225Z,164.90
2022-12-12T04:49:22.571Z,165.33
2022-12-12T04:50:35.112Z,157.75
2022-12-12T04:51:49.001Z,166.39
2022-12-12T04:53:01.226Z,169.75
2022-12-12T04:54:21.607Z,168.37
2022-12-12T04:55:34.468Z,167.66
2022-12-12T04:56:46.891Z,169.17
2022-12-12T04:57:57.747Z,165.44
2022-12-12T04:59:05.958Z,168.94
2022-12-12T05:00:17.443Z,165.05
2022-12-12T05:01:39.653Z,176.22
2022-12-12T05:02:58.921Z,183.78
2022-12-12T05:04:14.126Z,171.58
2022-12-12T05:05:35.211Z,173.22
2022-12-12T05:06:46.662Z,178.29
2022-12-12T05:08:01.046Z,182.51
2022-12-12T05:09:07.040Z,205.53
2022-12-12T05:10:19.967Z,202.15
2022-12-12T05:11:23.853Z,205.90
2022-12-12T05:12:30.254Z,205.91
2022-12-12T05:13:36.997Z,203.42
2022-12-12T05:14:44.000Z,205.37
2022-12-12T05:15:53.497Z,190.90
2022-12-12T05:17:09.722Z,191.64
2022-12-12T05:18:13.639Z,196.83
2022-12-12T05:19:19.516Z,230.97
2022-12-12T05:20:23.647Z,240.65
2022-12-12T05:21:33.069Z,217.32
2022-12-12T05:22:36.332Z,216.35
2022-12-12T05:23:42.336Z,220.42
2022-12-12T05:24:45.659Z,220.72
2022-12-12T05:25:52.532Z,214.99
2022-12-12T05:26:55.966Z,211.92
2022-12-12T05:28:02.273Z,218.00
2022-12-12T05:29:08.626Z,227.82
2022-12-12T05:30:16.173Z,213.81
2022-12-12T05:31:20.654Z,216.82
2022-12-12T05:32:26.527Z,219.03
2022-12-12T05:33:29.764Z,231.15
2022-12-12T05:34:35.795Z,242.78
2022-12-12T05:35:40.577Z,251.36
2022-12-12T05:36:50.050Z,255.02
2022-12-12T05:37:53.563Z,260.82
2022-12-12T05:38:59.540Z,253.52
2022-12-12T05:40:04.895Z,246.98
2022-12-12T05:41:12.355Z,246.64
2022-12-12T05:42:19.146Z,241.11
2022-12-12T05:43:22.386Z,247.10
2022-12-12T05:44:28.413Z,290.97
2022-12-12T05:45:31.733Z,244.85
2022-12-12T05:46:37.664Z,282.36
2022-12-12T05:47:44.567Z,321.96
2022-12-12T05:48:50.810Z,313.53
2022-12-12T05:49:57.864Z,267.52
2022-12-12T05:51:03.017Z,264.82
2022-12-12T05:52:11.597Z,276.48
2022-12-12T05:53:16.158Z,265.18
2022-12-12T05:54:22.553Z,270.27
2022-12-12T05:55:27.472Z,280.35
2022-12-12T05:56:33.361Z,260.05
2022-12-12T05:57:36.861Z,271.64
2022-12-12T05:58:45.214Z,279.02
2022-12-12T05:59:49.233Z,327.02
2022-12-12T06:01:01.638Z,306.47
2022-12-12T06:02:12.076Z,261.41
2022-12-12T06:03:17.162Z,282.09
2022-12-12T06:04:25.342Z,268.04
2022-12-12T06:05:29.423Z,251.39
2022-12-12T06:06:35.347Z,251.33
2022-12-12T06:07:42.276Z,268.46
2022-12-12T06:08:48.217Z,305.23
2022-12-12T06:09:52.557Z,303.73
2022-12-12T06:10:58.633Z,273.55
2022-12-12T06:12:02.024Z,274.79
2022-12-12T06:13:08.375Z,269.54
2022-12-12T06:14:14.344Z,287.04
2022-12-12T06:15:19.157Z,295.29
2022-12-12T06:16:25.181Z,279.54
2022-12-12T06:17:33.154Z,250.37
2022-12-12T06:18:40.664Z,269.57
2022-12-12T06:19:44.932Z,304.72
2022-12-12T06:20:53.434Z,357.66
2022-12-12T06:21:57.134Z,350.44
2022-12-12T06:23:05.905Z,363.99
2022-12-12T06:24:12.677Z,303.56
2022-12-12T06:25:16.211Z,281.36
2022-12-12T06:26:25.226Z,258.97
2022-12-12T06:27:29.126Z,248.54
2022-12-12T06:28:36.332Z,251.89
2022-12-12T06:29:39.898Z,242.64
2022-12-12T06:30:46.074Z,260.09
2022-12-12T06:31:53.561Z,290.79
2022-12-12T06:33:00.529Z,287.91
2022-12-12T06:34:07.147Z,269.88
2022-12-12T06:35:12.834Z,286.91
2022-12-12T06:36:25.749Z,256.67
2022-12-12T06:37:32.782Z,243.30
2022-12-12T06:38:42.943Z,228.10
2022-12-12T06:39:47.285Z,219.11
2022-12-12T06:40:53.238Z,227.38
2022-12-12T06:41:59.740Z,231.96
2022-12-12T06:43:06.573Z,234.30
2022-12-12T06:44:10.135Z,232.67
2022-12-12T06:45:16.335Z,234.56
2022-12-12T06:46:26.982Z,233.55
2022-12-12T06:47:30.424Z,247.24
2022-12-12T06:48:39.178Z,251.99
2022-12-12T06:49:45.265Z,247.97
2022-12-12T06:50:48.720Z,225.87
2022-12-12T06:51:54.759Z,218.31
2022-12-12T06:53:00.639Z,237.77
2022-12-12T06:54:10.779Z,240.54
2022-12-12T06:55:14.563Z,232.63
2022-12-12T06:56:26.103Z,230.58
2022-12-12T06:57:33.033Z,241.42
2022-12-12T06:58:40.084Z,259.04
2022-12-12T06:59:48.307Z,274.92
2022-12-12T07:00:54.255Z,267.80
2022-12-12T07:02:02.647Z,270.26
2022-12-12T07:03:09.188Z,301.93
2022-12-12T07:04:16.828Z,298.91
2022-12-12T07:05:24.807Z,251.44
2022-12-12T07:06:28.291Z,245.95
2022-12-12T07:07:34.553Z,239.11
2022-12-12T07:08:39.252Z,245.94
2022-12-12T07:09:48.301Z,241.20
2022-12-12T07:10:52.697Z,243.38
2022-12-12T07:11:59.072Z,265.63
2022-12-12T07:13:02.368Z,273.62
2022-12-12T07:14:08.957Z,280.71
2022-12-12T07:15:15.583Z,290.80
2022-12-12T07:16:23.752Z,280.44
2022-12-12T07:17:29.854Z,279.80
2022-12-12T07:18:36.223Z,278.44
2022-12-12T07:19:42.277Z,274.17
2022-12-12T07:20:47.245Z,292.57
2022-12-12T07:21:53.910Z,298.09
2022-12-12T07:22:57.592Z,296.19
2022-12-12T07:24:03.590Z,310.03
2022-12-12T07:25:12.801Z,380.15
2022-12-12T07:26:19.817Z,344.52
2022-12-12T07:27:26.680Z,317.48
2022-12-12T07:28:30.134Z,345.66
2022-12-12T07:29:36.341Z,384.42
2022-12-12T07:30:43.967Z,377.46
2022-12-12T07:31:47.677Z,387.39
2022-12-12T07:32:54.884Z,375.09
2022-12-12T07:33:58.880Z,300.92
2022-12-12T07:35:05.016Z,295.95
2022-12-12T07:36:09.090Z,318.02
2022-12-12T07:37:15.172Z,310.03
2022-12-12T07:38:19.406Z,270.64
2022-12-12T07:39:25.352Z,257.94
2022-12-12T07:40:36.002Z,312.35
2022-12-12T07:41:42.036Z,315.59
2022-12-12T07:42:45.455Z,335.13
2022-12-12T07:43:53.438Z,293.36
2022-12-12T07:44:59.544Z,258.41
2022-12-12T07:46:03.015Z,261.94
2022-12-12T07:47:10.707Z,360.47
2022-12-12T07:48:15.404Z,464.01
2022-12-12T07:49:22.108Z,347.87
2022-12-12T07:50:26.177Z,320.46
2022-12-12T07:51:33.304Z,371.12
2022-12-12T07:52:36.784Z,299.85
2022-12-12T07:53:43.221Z,318.44
2022-12-12T07:54:50.121Z,422.80
2022-12-12T07:55:56.891Z,477.07
2022-12-12T07:57:03.205Z,421.19
2022-12-12T07:58:06.805Z,424.63
2022-12-12T07:59:12.847Z,446.85
2022-12-12T08:00:19.907Z,408.56
2022-12-12T08:01:30.470Z,317.55
2022-12-12T08:02:34.066Z,329.15
2022-12-12T08:03:40.170Z,340.30
2022-12-12T08:04:46.297Z,343.82
2022-12-12T08:05:50.613Z,318.91
2022-12-12T08:07:02.720Z,340.85
2022-12-12T08:08:09.540Z,313.55
2022-12-12T08:09:15.473Z,262.50
2022-12-12T08:10:19.050Z,255.72
2022-12-12T08:11:29.622Z,252.45
2022-12-12T08:12:33.723Z,281.59
2022-12-12T08:13:43.119Z,280.20
2022-12-12T08:14:49.281Z,294.90
2022-12-12T08:15:55.239Z,293.53
2022-12-12T08:17:03.211Z,299.96
2022-12-12T08:18:06.607Z,301.21
2022-12-12T08:19:12.554Z,314.71
2022-12-12T08:20:19.916Z,355.79
2022-12-12T08:21:27.387Z,428.98
2022-12-12T08:22:31.557Z,453.70
2022-12-12T08:23:37.550Z,440.69
2022-12-12T08:24:43.950Z,390.41
2022-12-12T08:25:47.380Z,329.32
2022-12-12T08:26:56.109Z,316.89
2022-12-12T08:28:02.923Z,302.30
2022-12-12T08:29:09.224Z,299.63
2022-12-12T08:30:16.591Z,287.78
2022-12-12T08:31:25.150Z,276.47
2022-12-12T08:32:31.287Z,307.43
2022-12-12T08:33:39.245Z,266.41
2022-12-12T08:34:45.148Z,292.45
2022-12-12T08:35:51.102Z,366.35
2022-12-12T08:36:57.177Z,353.56
2022-12-12T08:38:04.063Z,340.39
2022-12-12T08:39:16.185Z,299.57
2022-12-12T08:40:22.223Z,298.59
2022-12-12T08:41:28.554Z,308.25
2022-12-12T08:42:37.059Z,315.39
2022-12-12T08:43:45.759Z,339.65
2022-12-12T08:44:53.300Z,317.76
2022-12-12T08:46:03.939Z,281.42
2022-12-12T08:47:10.898Z,252.71
2022-12-12T08:48:14.335Z,260.17
2022-12-12T08:49:20.297Z,258.53
2022-12-12T08:50:29.848Z,274.13
2022-12-12T08:51:36.159Z,256.19
2022-12-12T08:52:42.397Z,250.87
2022-12-12T08:53:49.378Z,231.27
2022-12-12T08:54:52.822Z,242.64
2022-12-12T08:55:59.719Z,235.19
2022-12-12T08:57:05.814Z,228.91
2022-12-12T08:58:14.294Z,231.06
2022-12-12T08:59:22.137Z,245.26
2022-12-12T09:00:28.092Z,229.13
2022-12-12T09:01:35.322Z,233.63
2022-12-12T09:02:41.614Z,226.28
2022-12-12T09:03:48.333Z,242.66
2022-12-12T09:04:54.210Z,241.31
2022-12-12T09:06:00.624Z,234.84
2022-12-12T09:07:08.934Z,240.52
2022-12-12T09:08:15.854Z,254.75
2022-12-12T09:09:21.966Z,264.78
2022-12-12T09:10:28.549Z,253.65
2022-12-12T09:11:34.457Z,263.57
2022-12-12T09:12:42.042Z,270.62
2022-12-12T09:13:50.992Z,250.25
2022-12-12T09:14:56.896Z,260.09
2022-12-12T09:16:00.373Z,265.19
2022-12-12T09:17:06.876Z,262.13
2022-12-12T09:18:13.654Z,268.15
2022-12-12T09:19:20.327Z,267.53
2022-12-12T09:20:26.310Z,284.30
2022-12-12T09:21:29.837Z,270.00
2022-12-12T09:22:35.799Z,261.07
2022-12-12T09:23:42.782Z,249.36
2022-12-12T09:24:49.410Z,252.51
2022-12-12T09:25:54.260Z,261.00
2022-12-12T09:27:00.297Z,259.86
2022-12-12T09:28:06.408Z,263.68
2022-12-12T09:29:16.696Z,258.05
2022-12-12T09:30:23.068Z,255.95
2022-12-12T09:31:29.606Z,238.39
2022-12-12T09:32:35.580Z,229.83
2022-12-12T09:33:43.488Z,221.49
2022-12-12T09:34:50.360Z,223.75
2022-12-12T09:35:59.995Z,232.31
2022-12-12T09:37:06.143Z,252.38
2022-12-12T09:38:14.968Z,339.10
2022-12-12T09:39:21.947Z,320.48
2022-12-12T09:40:39.249Z,299.78
2022-12-12T09:41:45.249Z,310.88
2022-12-12T09:42:54.924Z,339.88
2022-12-12T09:44:06.780Z,362.55
2022-12-12T09:45:15.991Z,339.05
2022-12-12T09:46:37.817Z,339.27
2022-12-12T09:47:50.697Z,398.57
2022-12-12T09:49:14.195Z,355.24
2022-12-12T09:50:32.628Z,324.96
2022-12-12T09:51:38.067Z,384.01
2022-12-12T09:52:45.552Z,428.80
2022-12-12T09:53:51.809Z,369.75
2022-12-12T09:54:58.203Z,321.96
2022-12-12T09:56:16.882Z,252.94
2022-12-12T09:57:36.512Z,319.34
2022-12-12T09:58:57.223Z,272.18
2022-12-12T10:00:14.174Z,267.21
2022-12-12T10:01:34.664Z,292.28
2022-12-12T10:03:07.046Z,318.46
2022-12-12T10:04:35.161Z,339.21
2022-12-12T10:06:13.516Z,351.76
2022-12-12T10:07:30.448Z,278.73
2022-12-12T10:08:51.045Z,270.61
2022-12-12T10:10:16.090Z,257.92
2022-12-12T10:11:44.091Z,283.56
2022-12-12T10:12:53.188Z,303.41
2022-12-12T10:14:08.110Z,298.50
2022-12-12T10:15:32.834Z,296.14
2022-12-12T10:16:44.599Z,277.52
2022-12-12T10:17:52.668Z,279.98
2022-12-12T10:19:12.200Z,264.25
2022-12-12T10:20:25.112Z,328.16
2022-12-12T10:21:37.655Z,320.11
2022-12-12T10:22:56.688Z,314.85
2022-12-12T10:24:22.327Z,280.72
2022-12-12T10:25:44.192Z,253.14
2022-12-12T10:26:47.672Z,270.35
2022-12-12T10:27:59.251Z,271.94
2022-12-12T10:29:15.594Z,246.43
2022-12-12T10:30:24.296Z,258.46
2022-12-12T10:31:51.376Z,277.77
2022-12-12T10:33:22.063Z,254.23
2022-12-12T10:34:55.273Z,238.37
2022-12-12T10:36:20.759Z,232.78
2022-12-12T10:37:47.325Z,234.39
2022-12-12T10:39:17.326Z,274.37
2022-12-12T10:40:52.167Z,301.65
2022-12-12T10:42:12.643Z,302.98
2022-12-12T10:43:26.762Z,285.92
2022-12-12T10:45:05.610Z,264.42
2022-12-12T10:46:31.354Z,251.40
2022-12-12T10:47:40.320Z,255.99
2022-12-12T10:48:47.633Z,272.10
2022-12-12T10:50:10.051Z,288.93
2022-12-12T10:51:26.046Z,329.80
2022-12-12T10:52:31.919Z,319.03
2022-12-12T10:53:38.928Z,344.53
2022-12-12T10:54:51.335Z,332.13
2022-12-12T10:56:03.793Z,286.68
2022-12-12T10:57:20.054Z,254.07
2022-12-12T10:58:27.916Z,235.41
2022-12-12T10:59:33.867Z,251.94
2022-12-12T11:00:44.243Z,248.54
2022-12-12T11:02:11.117Z,250.95
2022-12-12T11:03:32.063Z,254.56
2022-12-12T11:04:40.249Z,301.32
2022-12-12T11:05:46.273Z,307.54
2022-12-12T11:06:56.529Z,252.67
2022-12-12T11:08:08.374Z,263.41
2022-12-12T11:09:23.529Z,312.20
2022-12-12T11:10:34.750Z,317.20
2022-12-12T11:11:40.876Z,291.06
2022-12-12T11:12:44.143Z,277.12
2022-12-12T11:13:56.851Z,286.37
2022-12-12T11:15:13.897Z,324.42
2022-12-12T11:16:26.211Z,315.18
2022-12-12T11:17:34.270Z,327.18
2022-12-12T11:18:42.919Z,291.55
2022-12-12T11:19:49.644Z,297.71
2022-12-12T11:21:12.572Z,291.43
2022-12-12T11:22:19.517Z,272.82
2022-12-12T11:23:31.935Z,279.08
2022-12-12T11:24:45.534Z,254.40
2022-12-12T11:26:01.051Z,322.54
2022-12-12T11:27:10.840Z,319.39
2022-12-12T11:28:28.720Z,349.94
2022-12-12T11:29:49.373Z,320.04
2022-12-12T11:30:59.672Z,297.29
2022-12-12T11:32:08.322Z,287.27
2022-12-12T11:33:26.301Z,272.64
2022-12-12T11:34:41.998Z,275.26
2022-12-12T11:35:49.570Z,258.94
2022-12-12T11:36:58.432Z,252.15
2022-12-12T11:38:10.728Z,234.07
2022-12-12T11:39:27.372Z,241.93
2022-12-12T11:40:37.781Z,240.93
2022-12-12T11:42:04.660Z,228.20
2022-12-12T11:43:32.422Z,227.17
2022-12-12T11:44:42.001Z,237.17
2022-12-12T11:46:05.657Z,234.24
2022-12-12T11:47:28.651Z,205.40
2022-12-12T11:48:59.865Z,205.30
2022-12-12T11:50:23.661Z,193.88
2022-12-12T11:51:40.409Z,191.97
2022-12-12T11:52:43.991Z,201.64
2022-12-12T11:53:50.044Z,219.77
2022-12-12T11:54:57.725Z,234.03
2022-12-12T11:56:32.624Z,227.75
2022-12-12T11:58:09.375Z,223.46
2022-12-12T12:00:00.369Z,206.54
2022-12-12T12:01:20.477Z,204.17
2022-12-12T12:03:07.470Z,193.26
2022-12-12T12:04:42.241Z,208.95
2022-12-12T12:06:16.490Z,199.76
2022-12-12T12:07:51.470Z,206.82
2022-12-12T12:09:22.045Z,202.38
2022-12-12T12:10:53.899Z,207.74
2022-12-12T12:12:13.265Z,223.20
2022-12-12T12:13:45.103Z,238.08
2022-12-12T12:15:21.894Z,218.38
2022-12-12T12:16:48.788Z,211.04
2022-12-12T12:18:34.613Z,203.39
2022-12-12T12:19:59.383Z,208.33
2022-12-12T12:21:31.709Z,224.21
2022-12-12T12:22:59.308Z,226.64
2022-12-12T12:24:58.079Z,228.57
2022-12-12T12:26:16.335Z,235.76
2022-12-12T12:27:39.753Z,232.50
2022-12-12T12:29:40.031Z,218.29
2022-12-12T12:31:03.441Z,213.62
2022-12-12T12:32:28.956Z,222.89
2022-12-12T12:34:04.833Z,237.95
2022-12-12T12:35:33.011Z,228.35
2022-12-12T12:37:05.034Z,219.22
2022-12-12T12:38:29.548Z,203.86
2022-12-12T12:40:10.620Z,193.50
2022-12-12T12:41:43.027Z,191.87
2022-12-12T12:43:23.747Z,190.81
2022-12-12T12:44:47.281Z,208.75
2022-12-12T12:46:04.114Z,223.21
2022-12-12T12:47:29.679Z,216.08
2022-12-12T12:48:44.094Z,204.65
2022-12-12T12:50:02.188Z,208.09
2022-12-12T12:51:21.809Z,229.59
2022-12-12T12:52:41.902Z,214.56
2022-12-12T12:53:58.078Z,223.47
2022-12-12T12:55:05.908Z,212.14
2022-12-12T12:56:26.878Z,212.85
2022-12-12T12:57:42.136Z,208.99
2022-12-12T12:58:53.089Z,217.84
2022-12-12T13:00:07.023Z,222.54
2022-12-12T13:01:24.205Z,219.20
2022-12-12T13:02:44.195Z,239.50
2022-12-12T13:04:04.353Z,247.71
2022-12-12T13:05:22.364Z,271.80
2022-12-12T13:06:50.681Z,258.85
2022-12-12T13:08:16.628Z,240.93
2022-12-12T13:09:37.205Z,223.06
2022-12-12T13:10:52.558Z,237.62
2022-12-12T13:12:13.444Z,250.00
2022-12-12T13:13:30.801Z,263.40
2022-12-12T13:14:48.565Z,255.89
2022-12-12T13:16:04.846Z,307.17
2022-12-12T13:17:33.961Z,306.12
2022-12-12T13:18:46.109Z,262.42
2022-12-12T13:19:59.003Z,269.39
2022-12-12T13:21:18.667Z,279.31
2022-12-12T13:22:43.807Z,301.07
2022-12-12T13:24:05.050Z,295.63
2022-12-12T13:25:24.843Z,278.89
2022-12-12T13:26:47.227Z,238.66
2022-12-12T13:27:58.874Z,248.34
2022-12-12T13:29:31.035Z,254.57
2022-12-12T13:31:01.768Z,271.55
2022-12-12T13:32:45.846Z,232.00
2022-12-12T13:34:04.524Z,232.81
2022-12-12T13:35:18.294Z,237.19
2022-12-12T13:36:30.421Z,243.99
2022-12-12T13:37:47.899Z,263.53
2022-12-12T13:39:03.585Z,262.58
2022-12-12T13:40:25.869Z,239.70
2022-12-12T13:42:01.487Z,261.33
2022-12-12T13:43:10.548Z,248.21
2022-12-12T13:44:50.821Z,237.30
2022-12-12T13:45:54.742Z,224.36
2022-12-12T13:47:00.927Z,221.77
2022-12-12T13:48:07.386Z,219.27
2022-12-12T13:49:31.575Z,227.16
2022-12-12T13:50:38.532Z,224.49
2022-12-12T13:51:44.507Z,215.80
2022-12-12T13:53:23.197Z,208.71
2022-12-12T13:55:22.175Z,201.29
2022-12-12T13:56:39.389Z,200.52
2022-12-12T13:58:34.988Z,209.85
2022-12-12T14:00:32.234Z,198.69
2022-12-12T14:01:41.020Z,188.44
2022-12-12T14:03:09.238Z,188.24
2022-12-12T14:04:32.119Z,190.27
2022-12-12T14:05:43.623Z,192.92
2022-12-12T14:07:05.277Z,184.44
2022-12-12T14:08:30.760Z,183.86
2022-12-12T14:09:50.092Z,185.80
2022-12-12T14:11:05.296Z,183.34
2022-12-12T14:12:27.506Z,187.63
2022-12-12T14:13:47.586Z,193.18
2022-12-12T14:15:03.808Z,189.34
2022-12-12T14:16:24.937Z,189.65
2022-12-12T14:17:42.094Z,189.11
2022-12-12T14:19:06.781Z,183.44
2022-12-12T14:20:33.647Z,188.94
2022-12-12T14:21:51.025Z,192.38
2022-12-12T14:23:31.249Z,197.87
2022-12-12T14:25:07.663Z,195.39
2022-12-12T14:26:56.202Z,208.62
2022-12-12T14:28:22.286Z,190.53
2022-12-12T14:29:32.326Z,188.77
2022-12-12T14:30:59.965Z,194.63
2022-12-12T14:32:38.640Z,195.29
2022-12-12T14:34:23.061Z,195.08
2022-12-12T14:35:44.870Z,200.39
2022-12-12T14:37:38.187Z,198.77
2022-12-12T14:39:07.509Z,205.85
2022-12-12T14:40:24.973Z,215.21
2022-12-12T14:41:41.571Z,220.80
2022-12-12T14:43:19.938Z,226.74
2022-12-12T14:44:36.394Z,247.68
2022-12-12T14:45:59.155Z,258.19
2022-12-12T14:47:11.365Z,246.26
2022-12-12T14:48:26.044Z,227.34
2022-12-12T14:49:29.391Z,214.42
2022-12-12T14:50:35.476Z,217.85
2022-12-12T14:51:43.261Z,225.27
2022-12-12T14:52:49.298Z,213.15
2022-12-12T14:53:59.072Z,204.58
2022-12-12T14:55:05.681Z,203.44
2022-12-12T14:56:16.421Z,198.28
2022-12-12T14:57:27.604Z,205.08
2022-12-12T14:58:41.977Z,205.14
2022-12-12T14:59:48.569Z,203.50
2022-12-12T15:00:57.241Z,214.37
2022-12-12T15:02:16.926Z,215.53
2022-12-12T15:03:41.736Z,210.75
2022-12-12T15:04:54.508Z,217.89
2022-12-12T15:06:31.865Z,218.38
2022-12-12T15:07:41.360Z,231.16
2022-12-12T15:08:45.741Z,226.31
2022-12-12T15:09:52.698Z,237.37
2022-12-12T15:10:59.336Z,234.75
2022-12-12T15:12:22.907Z,249.78
2022-12-12T15:13:28.950Z,247.81
2022-12-12T15:14:39.157Z,249.23
2022-12-12T15:15:46.609Z,238.75
2022-12-12T15:17:02.027Z,232.12